createdAt,value
2023-04-25T00:01:24.303Z,98919.06
2023-04-25T00:03:53.530Z,98919.06
2023-04-25T00:06:21.564Z,98919.06
2023-04-25T00:08:49.776Z,98919.06
2023-04-25T00:11:17.385Z,98919.06
2023-04-25T00:13:44.758Z,98919.06
2023-04-25T00:16:14.396Z,98919.06
2023-04-25T00:18:41.804Z,98919.06
2023-04-25T00:21:11.435Z,98919.06
2023-04-25T00:23:41.267Z,98919.06
2023-04-25T00:26:08.663Z,98919.06
2023-04-25T00:28:36.066Z,98919.06
2023-04-25T00:31:03.476Z,98919.06
2023-04-25T00:33:31.281Z,98919.06
2023-04-25T00:36:00.923Z,98919.06
2023-04-25T00:38:29.648Z,98919.06
2023-04-25T00:40:57.806Z,98919.06
2023-04-25T00:43:27.346Z,98919.06
2023-04-25T00:45:56.756Z,98919.06
2023-04-25T00:48:24.325Z,98919.06
2023-04-25T00:50:55.035Z,98919.06
2023-04-25T00:53:25.863Z,98919.06
2023-04-25T00:55:55.351Z,98919.06
2023-04-25T00:58:23.511Z,98919.06
2023-04-25T01:00:53.789Z,98919.06
2023-04-25T01:03:21.755Z,98919.06
2023-04-25T01:05:49.860Z,98919.06
2023-04-25T01:08:17.469Z,98919.06
2023-04-25T01:10:44.847Z,98919.06
2023-04-25T01:13:16.255Z,98919.06
2023-04-25T01:15:43.685Z,98919.06
2023-04-25T01:18:11.647Z,98919.06
2023-04-25T01:20:39.829Z,98919.06
2023-04-25T01:23:08.615Z,98919.06
2023-04-25T01:25:36.365Z,98919.06
2023-04-25T01:28:03.707Z,98919.06
2023-04-25T01:30:31.656Z,98919.06
2023-04-25T01:32:59.660Z,98919.06
2023-04-25T01:35:27.209Z,98919.06
2023-04-25T01:37:54.638Z,98919.06
2023-04-25T01:40:24.061Z,98919.06
2023-04-25T01:42:52.231Z,98919.06
2023-04-25T01:45:20.319Z,98919.06
2023-04-25T01:47:50.240Z,98919.06
2023-04-25T01:50:18.808Z,98919.06
2023-04-25T01:52:46.880Z,98919.06
2023-04-25T01:55:14.303Z,98919.06
2023-04-25T01:57:43.038Z,98919.06
2023-04-25T02:00:12.999Z,98919.06
2023-04-25T02:02:41.301Z,98919.06
2023-04-25T02:05:09.377Z,98919.06
2023-04-25T02:07:37.153Z,98919.06
2023-04-25T02:10:05.131Z,98919.06
2023-04-25T02:12:32.854Z,98919.06
2023-04-25T02:15:01.632Z,98919.06
2023-04-25T02:17:29.066Z,98919.06
2023-04-25T02:19:56.606Z,98919.06
2023-04-25T02:22:23.980Z,98919.06
2023-04-25T02:24:51.390Z,98919.06
2023-04-25T02:27:18.772Z,98919.06
2023-04-25T02:29:46.201Z,98919.06
2023-04-25T02:32:14.911Z,98919.06
2023-04-25T02:34:42.272Z,98919.06
2023-04-25T02:37:09.669Z,98919.06
2023-04-25T02:39:37.012Z,98919.06
2023-04-25T02:42:04.669Z,98919.06
2023-04-25T02:44:32.064Z,98919.06
2023-04-25T02:46:59.526Z,98919.06
2023-04-25T02:49:28.580Z,98919.06
2023-04-25T02:51:55.977Z,98919.06
2023-04-25T02:54:23.354Z,98919.06
2023-04-25T02:56:50.936Z,98919.06
2023-04-25T02:59:18.308Z,98919.06
2023-04-25T03:01:46.175Z,98919.06
2023-04-25T03:04:13.560Z,98919.06
2023-04-25T03:06:42.383Z,98919.06
2023-04-25T03:09:09.754Z,98919.06
2023-04-25T03:11:38.986Z,98919.06
2023-04-25T03:14:06.447Z,98919.06
2023-04-25T03:16:33.897Z,98919.06
2023-04-25T03:19:01.389Z,98919.06
2023-04-25T03:21:28.803Z,98919.06
2023-04-25T03:23:57.993Z,98919.06
2023-04-25T03:26:25.815Z,98919.06
2023-04-25T03:28:53.191Z,98919.06
2023-04-25T03:31:20.607Z,98919.06
2023-04-25T03:33:48.239Z,98919.06
2023-04-25T03:36:19.164Z,98919.06
2023-04-25T03:38:46.532Z,98919.06
2023-04-25T03:41:15.205Z,98919.06
2023-04-25T03:43:42.586Z,98919.06
2023-04-25T03:46:10.099Z,98919.06
2023-04-25T03:48:37.822Z,98919.06
2023-04-25T03:51:05.459Z,98919.06
2023-04-25T03:53:32.851Z,98919.06
2023-04-25T03:56:00.233Z,98919.06
2023-04-25T03:58:28.930Z,98919.06
2023-04-25T04:00:56.338Z,98919.06
2023-04-25T04:03:25.439Z,98919.06
2023-04-25T04:05:53.321Z,98919.06
2023-04-25T04:08:20.978Z,98919.06
2023-04-25T04:10:48.340Z,98919.06
2023-04-25T04:13:15.967Z,98919.06
2023-04-25T04:15:44.757Z,98919.06
2023-04-25T04:18:12.473Z,98919.06
2023-04-25T04:20:40.060Z,98919.06
2023-04-25T04:23:08.742Z,98919.06
2023-04-25T04:25:37.971Z,98919.06
2023-04-25T04:28:05.930Z,98919.06
2023-04-25T04:30:37.124Z,98919.06
2023-04-25T04:33:05.879Z,98919.06
2023-04-25T04:35:33.304Z,98919.06
2023-04-25T04:38:00.685Z,98919.06
2023-04-25T04:40:28.414Z,98919.06
2023-04-25T04:42:57.366Z,98919.06
2023-04-25T04:45:24.759Z,98919.06
2023-04-25T04:47:52.178Z,98919.06
2023-04-25T04:50:20.947Z,98919.06
2023-04-25T04:52:48.319Z,98919.06
2023-04-25T04:55:15.686Z,98919.06
2023-04-25T04:57:43.217Z,98919.06
2023-04-25T05:00:13.495Z,98919.06
2023-04-25T05:02:41.294Z,98919.06
2023-04-25T05:05:09.694Z,98919.06
2023-04-25T05:07:38.453Z,98919.06
2023-04-25T05:10:07.071Z,98919.06
2023-04-25T05:12:36.370Z,98919.06
2023-04-25T05:15:04.569Z,98919.06
2023-04-25T05:17:32.005Z,98919.06
2023-04-25T05:20:02.028Z,98919.06
2023-04-25T05:22:29.491Z,98919.06
2023-04-25T05:24:58.178Z,98919.06
2023-04-25T05:27:25.912Z,98919.06
2023-04-25T05:29:53.731Z,98919.06
2023-04-25T05:32:27.009Z,98919.06
2023-04-25T05:34:54.621Z,98919.06
2023-04-25T05:37:22.204Z,98919.06
2023-04-25T05:39:49.658Z,98919.06
2023-04-25T05:42:18.390Z,98919.06
2023-04-25T05:44:46.466Z,98919.06
2023-04-25T05:47:13.852Z,98919.06
2023-04-25T05:49:41.260Z,98919.06
2023-04-25T05:52:08.876Z,98919.06
2023-04-25T05:54:36.270Z,98919.06
2023-04-25T05:57:04.099Z,98919.06
2023-04-25T05:59:32.779Z,98919.06
2023-04-25T06:02:00.218Z,98919.06
2023-04-25T06:04:27.859Z,98919.06
2023-04-25T06:06:55.491Z,98919.06
2023-04-25T06:09:22.915Z,98919.06
2023-04-25T06:11:50.490Z,98919.06
2023-04-25T06:14:18.144Z,98919.06
2023-04-25T06:16:47.100Z,98919.06
2023-04-25T06:19:14.491Z,98919.06
2023-04-25T06:21:42.000Z,98919.06
2023-04-25T06:24:09.473Z,98919.06
2023-04-25T06:26:39.931Z,98919.06
2023-04-25T06:29:07.330Z,98919.06
2023-04-25T06:31:36.683Z,98919.06
2023-04-25T06:34:05.503Z,98919.06
2023-04-25T06:36:32.858Z,98919.06
2023-04-25T06:39:00.289Z,98919.06
2023-04-25T06:41:27.659Z,98919.06
2023-04-25T06:43:56.236Z,98919.06
2023-04-25T06:46:23.969Z,98919.06
2023-04-25T06:48:51.587Z,98919.06
2023-04-25T06:51:22.932Z,98919.06
2023-04-25T06:53:51.562Z,98919.06
2023-04-25T06:56:19.416Z,98919.06
2023-04-25T06:58:46.844Z,98919.06
2023-04-25T07:01:14.369Z,98919.06
2023-04-25T07:03:41.949Z,98919.06
2023-04-25T07:06:09.741Z,98919.06
2023-04-25T07:08:38.464Z,98919.06
2023-04-25T07:11:05.909Z,98919.06
2023-04-25T07:13:33.346Z,98919.06
2023-04-25T07:16:01.659Z,98919.06
2023-04-25T07:18:29.055Z,98919.06
2023-04-25T07:20:56.417Z,98919.06
2023-04-25T07:23:23.825Z,98919.06
2023-04-25T07:25:52.649Z,98919.06
2023-04-25T07:28:20.102Z,98919.06
2023-04-25T07:30:47.922Z,98919.06
2023-04-25T07:33:15.552Z,98919.06
2023-04-25T07:35:42.950Z,98919.06
2023-04-25T07:38:11.288Z,98919.06
2023-04-25T07:40:38.672Z,98919.06
2023-04-25T07:43:07.472Z,98919.06
2023-04-25T07:45:34.920Z,98919.06
2023-04-25T07:48:05.079Z,98919.06
2023-04-25T07:50:32.516Z,98919.06
2023-04-25T07:52:59.922Z,98919.06
2023-04-25T07:55:27.623Z,98919.06
2023-04-25T07:57:55.228Z,98919.06
2023-04-25T08:00:24.134Z,98919.06
2023-04-25T08:02:52.447Z,98919.06
2023-04-25T08:05:22.750Z,98919.06
2023-04-25T08:07:51.006Z,98919.06
2023-04-25T08:10:18.591Z,98919.06
2023-04-25T08:12:45.996Z,98919.06
2023-04-25T08:15:14.751Z,98919.06
2023-04-25T08:17:44.808Z,98919.06
2023-04-25T08:20:13.742Z,98919.06
2023-04-25T08:22:42.854Z,98919.06
2023-04-25T08:25:11.582Z,98919.06
2023-04-25T08:27:39.022Z,98919.06
2023-04-25T08:30:07.922Z,98919.06
2023-04-25T08:32:35.665Z,98919.06
2023-04-25T08:35:04.867Z,98919.06
2023-04-25T08:37:32.466Z,98919.06
2023-04-25T08:40:00.207Z,98919.06
2023-04-25T08:42:29.706Z,98919.06
2023-04-25T08:44:57.392Z,98919.06
2023-04-25T08:47:26.263Z,98919.06
2023-04-25T08:49:55.560Z,98919.06
2023-04-25T08:52:25.497Z,98919.06
2023-04-25T08:54:53.536Z,98919.06
2023-04-25T08:57:23.052Z,98919.06
2023-04-25T08:59:51.261Z,98919.06
2023-04-25T09:02:20.794Z,98919.06
2023-04-25T09:04:48.503Z,98919.06
2023-04-25T09:07:19.348Z,98919.06
2023-04-25T09:09:48.063Z,98919.06
2023-04-25T09:12:15.557Z,98919.06
2023-04-25T09:14:44.818Z,98919.06
2023-04-25T09:17:12.375Z,98919.06
2023-04-25T09:19:42.040Z,98919.06
2023-04-25T09:22:10.709Z,98919.06
2023-04-25T09:24:39.784Z,98919.06
2023-04-25T09:27:10.545Z,98919.06
2023-04-25T09:29:39.372Z,98919.06
2023-04-25T09:32:13.879Z,98919.06
2023-04-25T09:34:43.063Z,98919.06
2023-04-25T09:37:11.550Z,98919.06
2023-04-25T09:39:40.632Z,98919.06
2023-04-25T09:42:11.281Z,98919.06
2023-04-25T09:44:43.651Z,98919.06
2023-04-25T09:47:12.404Z,98919.06
2023-04-25T09:49:44.541Z,98919.06
2023-04-25T09:52:16.586Z,98919.06
2023-04-25T09:54:43.972Z,98919.06
2023-04-25T09:57:17.269Z,98919.06
2023-04-25T09:59:48.945Z,98919.06
2023-04-25T10:02:17.906Z,98919.06
2023-04-25T10:04:49.355Z,98919.06
2023-04-25T10:07:18.527Z,98919.06
2023-04-25T10:09:50.658Z,98919.06
2023-04-25T10:12:19.894Z,98919.06
2023-04-25T10:14:48.533Z,98919.06
2023-04-25T10:17:16.304Z,98919.06
2023-04-25T10:19:44.148Z,98919.06
2023-04-25T10:22:16.813Z,98919.06
2023-04-25T10:24:45.654Z,98919.06
2023-04-25T10:27:13.175Z,98919.06
2023-04-25T10:29:44.242Z,98919.06
2023-04-25T10:32:11.766Z,98919.06
2023-04-25T10:34:41.523Z,98919.06
2023-04-25T10:37:14.053Z,98919.06
2023-04-25T10:39:43.125Z,98919.06
2023-04-25T10:42:10.819Z,98919.06
2023-04-25T10:44:39.748Z,98919.06
2023-04-25T10:47:10.468Z,98919.06
2023-04-25T10:49:40.125Z,98919.06
2023-04-25T10:52:26.812Z,98919.06
2023-04-25T10:54:55.864Z,98919.06
2023-04-25T10:57:34.486Z,98919.06
2023-04-25T11:00:06.809Z,98919.06
2023-04-25T11:02:39.053Z,98919.06
2023-04-25T11:05:07.631Z,98919.06
2023-04-25T11:07:42.260Z,98919.06
2023-04-25T11:10:10.901Z,98919.06
2023-04-25T11:12:38.274Z,98919.06
2023-04-25T11:15:07.440Z,98919.06
2023-04-25T11:17:36.541Z,98919.06
2023-04-25T11:20:07.813Z,98919.06
2023-04-25T11:22:36.945Z,98919.06
2023-04-25T11:25:08.638Z,98919.06
2023-04-25T11:27:39.264Z,98919.06
2023-04-25T11:30:16.891Z,98919.06
2023-04-25T11:32:46.430Z,98919.06
2023-04-25T11:35:14.726Z,98919.06
2023-04-25T11:37:44.391Z,98919.06
2023-04-25T11:40:13.030Z,98919.06
2023-04-25T11:42:41.608Z,98919.06
2023-04-25T11:45:10.507Z,98919.06
2023-04-25T11:47:38.863Z,98919.06
2023-04-25T11:50:09.668Z,98919.06
2023-04-25T11:52:39.756Z,98919.06
2023-04-25T11:55:11.129Z,98919.06
2023-04-25T11:57:43.310Z,98919.06
2023-04-25T12:00:18.345Z,98919.06
2023-04-25T12:02:49.948Z,98919.06
2023-04-25T12:07:49.139Z,98919.06
2023-04-25T12:10:18.075Z,98919.06
2023-04-25T12:12:46.960Z,98919.06
2023-04-25T12:15:18.217Z,98919.06
2023-04-25T12:17:47.413Z,98919.06
2023-04-25T12:20:16.485Z,98919.06
2023-04-25T12:22:47.600Z,98919.06
2023-04-25T12:25:35.388Z,98919.06
2023-04-25T12:28:11.994Z,98919.06
2023-04-25T12:30:54.682Z,98919.06
2023-04-25T12:33:22.526Z,98919.06
2023-04-25T12:35:50.013Z,98919.06
2023-04-25T12:38:24.749Z,98919.06
2023-04-25T12:40:56.447Z,100023.06
2023-04-25T12:43:24.273Z,100023.06
2023-04-25T12:45:52.339Z,100023.06
2023-04-25T12:48:20.507Z,100036.91
2023-04-25T12:50:49.886Z,100036.91
2023-04-25T12:53:17.483Z,100036.91
2023-04-25T12:55:47.931Z,100033.47
2023-04-25T12:58:15.702Z,100032.09
2023-04-25T13:00:43.956Z,100032.09
2023-04-25T13:03:11.963Z,100032.09
2023-04-25T13:05:39.891Z,100046.09
2023-04-25T13:08:07.293Z,100046.09
2023-04-25T13:10:36.961Z,100046.09
2023-04-25T13:13:05.957Z,100039.69
2023-04-25T13:15:33.359Z,100039.69
2023-04-25T13:18:00.835Z,100039.69
2023-04-25T13:20:28.313Z,100039.69
2023-04-25T13:22:56.097Z,100041.38
2023-04-25T13:25:26.131Z,100035.28
2023-04-25T13:27:53.630Z,100033.56
2023-04-25T13:30:23.026Z,100031.66
2023-04-25T13:32:50.455Z,100068.59
2023-04-25T13:35:18.990Z,100042.19
2023-04-25T13:37:46.443Z,100041.75
2023-04-25T13:40:13.896Z,100041.75
2023-04-25T13:42:41.944Z,100044.09
2023-04-25T13:45:12.399Z,100044.09
2023-04-25T13:47:41.302Z,100044.09
2023-04-25T13:50:09.751Z,100044.09
2023-04-25T13:52:37.512Z,100044.09
2023-04-25T13:55:07.743Z,100044.09
2023-04-25T13:57:35.643Z,100044.09
2023-04-25T14:00:06.388Z,100048.84
2023-04-25T14:02:33.813Z,100051.19
2023-04-25T14:05:02.672Z,100051.19
2023-04-25T14:07:30.172Z,100051.19
2023-04-25T14:09:58.512Z,100051.19
2023-04-25T14:12:26.325Z,100042.66
2023-04-25T14:14:56.825Z,100067.22
2023-04-25T14:17:24.229Z,100040.50
2023-04-25T14:19:51.789Z,100017.00
2023-04-25T14:22:20.596Z,100017.00
2023-04-25T14:24:47.983Z,100017.00
2023-04-25T14:27:15.430Z,100017.00
2023-04-25T14:29:42.804Z,100017.00
2023-04-25T14:32:10.202Z,100017.00
2023-04-25T14:34:37.582Z,100004.19
2023-04-25T14:37:05.315Z,100006.91
2023-04-25T14:39:34.004Z,100006.91
2023-04-25T14:42:01.488Z,100006.91
2023-04-25T14:44:28.861Z,100013.97
2023-04-25T14:46:56.402Z,100013.97
2023-04-25T14:49:23.819Z,100039.91
2023-04-25T14:51:52.375Z,100029.38
2023-04-25T14:54:19.833Z,100021.06
2023-04-25T14:56:49.832Z,100040.25
2023-04-25T14:59:17.743Z,100040.25
2023-04-25T15:01:45.253Z,100040.25
2023-04-25T15:04:13.417Z,100040.25
2023-04-25T15:06:42.137Z,100069.56
2023-04-25T15:09:11.566Z,100090.81
2023-04-25T15:11:39.629Z,100090.81
2023-04-25T15:14:08.581Z,100087.53
2023-04-25T15:16:36.289Z,100086.72
2023-04-25T15:19:04.753Z,100086.72
2023-04-25T15:21:32.580Z,100086.72
2023-04-25T15:24:00.013Z,100086.72
2023-04-25T15:26:27.502Z,100090.97
2023-04-25T15:28:54.931Z,100088.28
2023-04-25T15:31:24.546Z,100082.84
2023-04-25T15:33:52.185Z,100091.25
2023-04-25T15:36:21.463Z,100090.00
2023-04-25T15:38:48.854Z,100087.66
2023-04-25T15:41:16.268Z,100088.84
2023-04-25T15:43:43.664Z,100086.09
2023-04-25T15:46:11.115Z,100082.97
2023-04-25T15:48:39.982Z,100082.97
2023-04-25T15:51:08.851Z,100082.97
2023-04-25T15:53:36.511Z,100082.97
2023-04-25T15:56:05.622Z,100082.97
2023-04-25T15:58:33.018Z,100082.97
2023-04-25T16:01:00.850Z,100082.97
2023-04-25T16:03:28.375Z,100082.97
2023-04-25T16:05:57.744Z,100082.97
2023-04-25T16:08:25.465Z,100082.97
2023-04-25T16:10:52.895Z,100082.97
2023-04-25T16:13:20.262Z,100082.97
2023-04-25T16:15:47.650Z,100082.97
2023-04-25T16:18:15.111Z,100082.97
2023-04-25T16:20:42.504Z,100082.97
2023-04-25T16:23:11.303Z,100082.97
2023-04-25T16:25:38.702Z,100082.97
2023-04-25T16:28:06.250Z,100082.97
2023-04-25T16:30:33.802Z,100082.97
2023-04-25T16:33:01.266Z,100082.97
2023-04-25T16:35:30.450Z,100115.41
2023-04-25T16:37:58.107Z,100119.53
2023-04-25T16:40:26.957Z,100132.56
2023-04-25T16:42:54.345Z,100136.03
2023-04-25T16:45:22.155Z,100133.28
2023-04-25T16:47:49.609Z,100145.44
2023-04-25T16:50:17.869Z,100138.06
2023-04-25T16:52:45.251Z,100150.03
2023-04-25T16:55:12.670Z,100162.28
2023-04-25T16:57:41.452Z,100151.75
2023-04-25T17:00:10.444Z,100153.19
2023-04-25T17:02:38.067Z,100149.63
2023-04-25T17:05:06.507Z,100146.38
2023-04-25T17:07:33.888Z,100143.72
2023-04-25T17:10:01.333Z,100138.38
2023-04-25T17:12:28.870Z,100147.50
2023-04-25T17:14:57.575Z,100127.22
2023-04-25T17:17:26.568Z,100135.56
2023-04-25T17:19:56.611Z,100135.31
2023-04-25T17:22:26.467Z,100130.22
2023-04-25T17:24:56.043Z,100144.09
2023-04-25T17:27:25.801Z,100136.72
2023-04-25T17:29:53.196Z,100135.53
2023-04-25T17:32:22.024Z,100136.72
2023-04-25T17:34:49.388Z,100144.66
2023-04-25T17:37:23.075Z,100149.38
2023-04-25T17:39:52.894Z,100145.78
2023-04-25T17:42:26.685Z,100133.59
2023-04-25T17:44:55.381Z,100142.16
2023-04-25T17:47:24.425Z,100145.84
2023-04-25T17:49:51.998Z,100143.41
2023-04-25T17:52:19.440Z,100155.19
2023-04-25T17:54:49.165Z,100150.31
2023-04-25T17:57:17.064Z,100147.06
2023-04-25T17:59:44.454Z,100167.03
2023-04-25T18:02:11.895Z,100156.25
2023-04-25T18:04:40.665Z,100164.59
2023-04-25T18:07:08.455Z,100150.63
2023-04-25T18:09:36.238Z,100165.28
2023-04-25T18:12:07.043Z,100164.09
2023-04-25T18:14:36.545Z,100166.19
2023-04-25T18:17:08.027Z,100170.72
2023-04-25T18:19:35.658Z,100161.56
2023-04-25T18:22:04.449Z,100161.56
2023-04-25T18:24:32.096Z,100161.56
2023-04-25T18:27:01.247Z,100172.41
2023-04-25T18:29:33.680Z,100172.41
2023-04-25T18:32:03.180Z,100172.41
2023-04-25T18:34:30.724Z,100172.41
2023-04-25T18:36:58.771Z,100172.41
2023-04-25T18:39:27.943Z,100172.41
2023-04-25T18:42:04.762Z,100172.41
2023-04-25T18:44:40.341Z,100172.41
2023-04-25T18:47:08.330Z,100172.41
2023-04-25T18:49:35.716Z,100172.41
2023-04-25T18:52:03.937Z,100172.41
2023-04-25T18:54:32.750Z,100172.41
2023-04-25T18:57:01.635Z,100172.41
2023-04-25T18:59:29.062Z,100172.41
2023-04-25T19:01:56.540Z,100172.41
2023-04-25T19:04:24.044Z,100172.41
2023-04-25T19:06:52.113Z,100172.41
2023-04-25T19:09:19.543Z,100172.41
2023-04-25T19:11:48.304Z,100172.41
2023-04-25T19:14:15.839Z,100172.41
2023-04-25T19:16:43.501Z,100172.41
2023-04-25T19:19:11.355Z,100172.41
2023-04-25T19:21:39.288Z,100172.41
2023-04-25T19:24:08.219Z,100172.41
2023-04-25T19:26:35.811Z,100172.41
2023-04-25T19:29:09.378Z,100172.41
2023-04-25T19:31:38.204Z,100172.41
2023-04-25T19:34:07.517Z,100172.41
2023-04-25T19:36:35.224Z,100172.41
2023-04-25T19:39:07.013Z,100172.41
2023-04-25T19:41:36.448Z,100172.41
2023-04-25T19:44:06.887Z,100172.41
2023-04-25T19:46:37.350Z,100172.41
2023-04-25T19:49:07.183Z,100172.41
2023-04-25T19:51:35.439Z,100172.41
2023-04-25T19:54:03.052Z,100172.41
2023-04-25T19:56:31.897Z,100172.41
2023-04-25T19:58:59.256Z,100172.41
2023-04-25T20:01:26.750Z,100172.41
2023-04-25T20:03:56.092Z,100172.41
2023-04-25T20:06:23.853Z,100172.41
2023-04-25T20:08:53.997Z,100172.41
2023-04-25T20:11:21.502Z,100172.41
2023-04-25T20:13:49.764Z,100172.41
2023-04-25T20:16:19.719Z,100172.41
2023-04-25T20:18:48.797Z,100172.41
2023-04-25T20:21:18.230Z,100172.41
2023-04-25T20:23:45.865Z,100172.41
2023-04-25T20:26:13.463Z,100172.41
2023-04-25T20:28:41.628Z,100172.41
2023-04-25T20:31:09.578Z,100172.41
2023-04-25T20:33:40.125Z,100172.41
2023-04-25T20:36:07.779Z,100172.41
2023-04-25T20:38:36.603Z,100172.41
2023-04-25T20:41:04.364Z,100172.41
2023-04-25T20:43:32.217Z,100172.41
2023-04-25T20:46:00.621Z,100172.41
2023-04-25T20:48:28.338Z,100172.41
2023-04-25T20:50:56.194Z,100172.41
2023-04-25T20:53:23.624Z,100172.41
2023-04-25T20:55:52.364Z,100172.41
2023-04-25T20:58:20.370Z,100172.41
2023-04-25T21:00:48.915Z,100172.41
2023-04-25T21:03:16.433Z,100172.41
2023-04-25T21:05:43.928Z,100172.41
2023-04-25T21:08:13.896Z,100172.41
2023-04-25T21:10:42.030Z,100172.41
2023-04-25T21:13:12.164Z,100172.41
2023-04-25T21:15:39.724Z,100172.41
2023-04-25T21:18:07.530Z,100172.41
2023-04-25T21:20:34.926Z,100172.41
2023-04-25T21:23:02.492Z,100172.41
2023-04-25T21:25:31.181Z,100172.41
2023-04-25T21:28:00.041Z,100172.41
2023-04-25T21:30:30.795Z,100172.41
2023-04-25T21:33:00.456Z,100172.41
2023-04-25T21:35:27.939Z,100172.41
2023-04-25T21:37:55.466Z,100172.41
2023-04-25T21:40:22.999Z,100172.41
2023-04-25T21:42:53.121Z,100172.41
2023-04-25T21:45:22.632Z,100172.41
2023-04-25T21:47:51.505Z,100172.41
2023-04-25T21:50:19.333Z,100172.41
2023-04-25T21:52:46.879Z,100172.41
2023-04-25T21:55:14.813Z,100172.41
2023-04-25T21:57:42.175Z,100172.41
2023-04-25T22:00:20.645Z,100172.41
2023-04-25T22:02:48.276Z,100172.41
2023-04-25T22:05:17.568Z,100172.41
2023-04-25T22:07:44.931Z,100172.41
2023-04-25T22:10:12.321Z,100172.41
2023-04-25T22:12:40.267Z,100172.41
2023-04-25T22:15:09.323Z,100172.41
2023-04-25T22:17:36.941Z,100172.41
2023-04-25T22:20:10.091Z,100172.41
2023-04-25T22:22:39.709Z,100172.41
2023-04-25T22:25:11.887Z,100172.41
2023-04-25T22:27:40.794Z,100172.41
2023-04-25T22:30:09.697Z,100172.41
2023-04-25T22:32:37.199Z,100172.41
2023-04-25T22:35:05.422Z,100172.41
2023-04-25T22:37:32.805Z,100172.41
2023-04-25T22:40:01.656Z,100172.41
2023-04-25T22:42:29.030Z,100172.41
2023-04-25T22:44:56.917Z,100172.41
2023-04-25T22:47:24.659Z,100172.41
2023-04-25T22:49:53.473Z,100172.41
2023-04-25T22:52:20.842Z,100172.41
2023-04-25T22:54:51.193Z,100172.41
2023-04-25T22:57:21.335Z,100172.41
2023-04-25T22:59:48.745Z,100172.41
2023-04-25T23:02:16.464Z,100172.41
2023-04-25T23:04:44.579Z,100172.41
2023-04-25T23:07:13.365Z,100172.41
2023-04-25T23:09:41.725Z,100172.41
2023-04-25T23:12:09.804Z,100172.41
2023-04-25T23:14:38.581Z,100172.41
2023-04-25T23:17:06.565Z,100172.41
2023-04-25T23:19:34.747Z,100172.41
2023-04-25T23:22:02.230Z,100038.22
2023-04-25T23:24:30.785Z,100029.38
2023-04-25T23:27:00.585Z,100019.34
2023-04-25T23:29:27.958Z,100016.94
2023-04-25T23:31:57.376Z,100016.91
2023-04-25T23:34:25.156Z,100014.31
2023-04-25T23:36:52.552Z,100014.31
2023-04-25T23:39:19.948Z,100014.31
2023-04-25T23:41:47.315Z,100014.31
2023-04-25T23:44:14.683Z,100014.31
2023-04-25T23:46:42.180Z,100014.31
2023-04-25T23:49:12.901Z,100014.31
2023-04-25T23:51:40.439Z,100014.31
2023-04-25T23:54:08.269Z,100014.31
2023-04-25T23:56:36.011Z,100014.31
2023-04-25T23:59:03.905Z,100014.31
